createdAt,value
2022-11-28T00:01:37.717Z,100.88
2022-11-28T00:04:06.175Z,91.47
2022-11-28T00:06:39.984Z,89.22
2022-11-28T00:09:07.480Z,98.38
2022-11-28T00:11:34.305Z,88.95
2022-11-28T00:14:00.856Z,87.75
2022-11-28T00:16:27.406Z,88.85
2022-11-28T00:18:55.046Z,87.30
2022-11-28T00:21:22.012Z,82.97
2022-11-28T00:23:49.524Z,83.85
2022-11-28T00:26:20.622Z,86.25
2022-11-28T00:28:47.898Z,87.07
2022-11-28T00:31:16.394Z,78.30
2022-11-28T00:33:43.030Z,80.55
2022-11-28T00:36:10.712Z,80.90
2022-11-28T00:38:37.688Z,82.38
2022-11-28T00:41:06.823Z,86.20
2022-11-28T00:43:34.190Z,80.15
2022-11-28T00:46:00.814Z,78.72
2022-11-28T00:48:27.880Z,79.60
2022-11-28T00:50:55.049Z,80.45
2022-11-28T00:53:22.977Z,79.60
2022-11-28T00:55:49.546Z,79.45
2022-11-28T00:58:16.050Z,81.03
2022-11-28T01:00:42.712Z,80.45
2022-11-28T01:03:09.272Z,80.20
2022-11-28T01:05:41.473Z,79.43
2022-11-28T01:08:08.051Z,77.30
2022-11-28T01:10:34.664Z,77.70
2022-11-28T01:13:01.222Z,82.55
2022-11-28T01:15:27.886Z,80.97
2022-11-28T01:17:54.377Z,78.55
2022-11-28T01:20:21.049Z,76.72
2022-11-28T01:22:47.607Z,74.95
2022-11-28T01:25:14.142Z,77.85
2022-11-28T01:27:40.653Z,77.10
2022-11-28T01:30:07.846Z,75.45
2022-11-28T01:32:34.426Z,76.25
2022-11-28T01:35:00.951Z,76.47
2022-11-28T01:37:29.965Z,81.93
2022-11-28T01:39:56.741Z,77.35
2022-11-28T01:42:23.542Z,78.43
2022-11-28T01:44:49.976Z,76.88
2022-11-28T01:47:21.569Z,79.78
2022-11-28T01:49:50.654Z,79.95
2022-11-28T01:52:20.460Z,79.50
2022-11-28T01:54:52.336Z,79.60
2022-11-28T01:57:22.794Z,77.50
2022-11-28T02:00:04.426Z,73.18
2022-11-28T02:02:39.259Z,81.60
2022-11-28T02:05:06.725Z,78.18
2022-11-28T02:07:34.653Z,78.07
2022-11-28T02:10:04.368Z,76.80
2022-11-28T02:12:54.614Z,72.65
2022-11-28T02:15:32.813Z,71.25
2022-11-28T02:18:36.060Z,70.15
2022-11-28T02:21:12.678Z,68.50
2022-11-28T02:24:05.185Z,62.42
2022-11-28T02:26:50.229Z,60.35
2022-11-28T02:32:57.952Z,58.55
2022-11-28T02:35:27.327Z,55.53
2022-11-28T02:38:03.001Z,43.95
2022-11-28T02:40:44.318Z,43.10
2022-11-28T02:43:50.080Z,41.97
2022-11-28T02:48:55.465Z,37.05
2022-11-28T02:51:46.076Z,36.78
2022-11-28T02:54:15.708Z,36.83
2022-11-28T02:56:50.888Z,37.13
2022-11-28T02:59:46.353Z,37.40
2022-11-28T03:04:56.234Z,44.55
2022-11-28T03:07:53.603Z,50.97
2022-11-28T03:10:37.260Z,49.10
2022-11-28T03:13:19.274Z,52.53
2022-11-28T03:16:05.305Z,53.03
2022-11-28T03:18:40.560Z,57.33
2022-11-28T03:21:17.824Z,62.83
2022-11-28T03:23:56.137Z,64.78
2022-11-28T03:26:47.140Z,63.42
2022-11-28T03:29:23.126Z,60.22
2022-11-28T03:31:55.542Z,59.00
2022-11-28T03:34:25.872Z,57.33
2022-11-28T03:37:00.070Z,58.38
2022-11-28T03:39:32.975Z,58.03
2022-11-28T03:42:10.133Z,53.28
2022-11-28T03:44:48.170Z,53.78
2022-11-28T03:47:15.143Z,56.97
2022-11-28T03:49:50.393Z,56.92
2022-11-28T03:52:25.310Z,58.65
2022-11-28T03:54:51.807Z,58.22
2022-11-28T03:57:24.531Z,56.30
2022-11-28T03:59:53.914Z,57.20
2022-11-28T04:02:47.926Z,54.00
2022-11-28T04:05:38.296Z,57.03
2022-11-28T04:08:18.392Z,54.17
2022-11-28T04:11:12.746Z,54.08
2022-11-28T04:14:06.698Z,53.72
2022-11-28T04:16:52.286Z,55.35
2022-11-28T04:19:56.059Z,53.40
2022-11-28T04:22:32.357Z,51.85
2022-11-28T04:25:04.063Z,49.78
2022-11-28T04:27:37.634Z,54.03
2022-11-28T04:30:06.914Z,54.65
2022-11-28T04:32:39.674Z,52.13
2022-11-28T04:35:19.533Z,51.70
2022-11-28T04:37:48.789Z,51.63
2022-11-28T04:40:17.984Z,53.83
2022-11-28T04:42:56.054Z,47.30
2022-11-28T04:45:30.933Z,47.95
2022-11-28T04:47:57.786Z,49.20
2022-11-28T04:50:29.880Z,48.65
2022-11-28T04:53:26.403Z,52.83
2022-11-28T04:55:58.717Z,50.08
2022-11-28T04:58:38.166Z,48.40
2022-11-28T05:01:09.037Z,47.83
2022-11-28T05:03:39.893Z,51.83
2022-11-28T05:06:09.592Z,48.55
2022-11-28T05:08:36.282Z,46.85
2022-11-28T05:11:02.894Z,47.88
2022-11-28T05:13:29.386Z,49.00
2022-11-28T05:15:56.011Z,50.85
2022-11-28T05:18:22.568Z,52.53
2022-11-28T05:20:49.069Z,48.95
2022-11-28T05:23:15.645Z,51.15
2022-11-28T05:25:42.126Z,55.05
2022-11-28T05:28:09.001Z,53.13
2022-11-28T05:30:35.532Z,49.78
2022-11-28T05:33:02.800Z,50.75
2022-11-28T05:35:29.441Z,46.95
2022-11-28T05:37:56.006Z,49.22
2022-11-28T05:40:22.801Z,46.08
2022-11-28T05:42:49.364Z,46.03
2022-11-28T05:45:15.918Z,51.78
2022-11-28T05:47:42.458Z,47.50
2022-11-28T05:50:09.262Z,46.10
2022-11-28T05:52:35.837Z,48.92
2022-11-28T05:55:02.351Z,48.58
2022-11-28T05:57:30.066Z,48.80
2022-11-28T05:59:57.405Z,50.78
2022-11-28T06:02:24.256Z,49.90
2022-11-28T06:04:50.855Z,47.33
2022-11-28T06:07:18.803Z,45.28
2022-11-28T06:09:45.632Z,47.60
2022-11-28T06:12:12.266Z,49.88
2022-11-28T06:14:38.840Z,50.92
2022-11-28T06:17:05.345Z,51.50
2022-11-28T06:19:31.906Z,53.17
2022-11-28T06:21:58.467Z,52.42
2022-11-28T06:24:24.945Z,54.42
2022-11-28T06:26:51.417Z,52.33
2022-11-28T06:29:17.923Z,53.55
2022-11-28T06:31:44.535Z,56.35
2022-11-28T06:34:13.052Z,55.15
2022-11-28T06:36:40.109Z,55.33
2022-11-28T06:39:06.747Z,56.50
2022-11-28T06:41:33.266Z,56.47
2022-11-28T06:43:59.929Z,53.30
2022-11-28T06:46:26.511Z,61.20
2022-11-28T06:48:53.442Z,60.80
2022-11-28T06:51:20.938Z,54.20
2022-11-28T06:53:47.781Z,51.10
2022-11-28T06:56:17.145Z,53.70
2022-11-28T06:58:45.102Z,52.35
2022-11-28T07:01:18.155Z,56.03
2022-11-28T07:03:45.533Z,54.70
2022-11-28T07:06:13.962Z,57.30
2022-11-28T07:08:41.337Z,57.58
2022-11-28T07:11:16.867Z,56.65
2022-11-28T07:13:45.853Z,56.88
2022-11-28T07:16:21.490Z,56.60
2022-11-28T07:18:48.488Z,55.30
2022-11-28T07:21:15.485Z,54.78
2022-11-28T07:23:43.033Z,52.85
2022-11-28T07:26:11.392Z,51.65
2022-11-28T07:28:37.877Z,50.17
2022-11-28T07:31:12.998Z,51.88
2022-11-28T07:33:41.334Z,47.88
2022-11-28T07:36:12.500Z,48.30
2022-11-28T07:38:39.009Z,50.35
2022-11-28T07:41:11.893Z,54.53
2022-11-28T07:43:39.496Z,56.63
2022-11-28T07:46:08.476Z,52.92
2022-11-28T07:48:35.700Z,51.88
2022-11-28T07:51:08.792Z,47.45
2022-11-28T07:53:35.910Z,44.78
2022-11-28T07:56:08.348Z,44.47
2022-11-28T07:58:36.138Z,43.22
2022-11-28T08:01:15.054Z,43.78
2022-11-28T08:03:42.165Z,41.55
2022-11-28T08:06:09.299Z,44.05
2022-11-28T08:08:36.073Z,37.15
2022-11-28T08:11:05.402Z,37.50
2022-11-28T08:13:32.288Z,37.25
2022-11-28T08:15:58.944Z,37.47
2022-11-28T08:18:25.495Z,35.92
2022-11-28T08:20:52.399Z,35.30
2022-11-28T08:23:18.954Z,36.15
2022-11-28T08:25:45.456Z,37.40
2022-11-28T08:28:11.962Z,35.75
2022-11-28T08:30:38.496Z,33.75
2022-11-28T08:33:05.035Z,32.70
2022-11-28T08:35:31.549Z,29.83
2022-11-28T08:38:01.848Z,32.20
2022-11-28T08:40:28.965Z,37.53
2022-11-28T08:42:55.853Z,34.90
2022-11-28T08:45:22.411Z,33.00
2022-11-28T08:47:48.997Z,34.88
2022-11-28T08:50:15.689Z,45.00
2022-11-28T08:52:42.231Z,48.20
2022-11-28T08:55:09.145Z,54.45
2022-11-28T08:57:35.783Z,54.50
2022-11-28T09:00:02.525Z,58.35
2022-11-28T09:02:29.049Z,56.00
2022-11-28T09:04:55.574Z,55.92
2022-11-28T09:07:22.210Z,56.42
2022-11-28T09:09:49.109Z,58.20
2022-11-28T09:12:16.241Z,53.20
2022-11-28T09:14:42.804Z,51.88
2022-11-28T09:17:09.463Z,55.65
2022-11-28T09:19:36.052Z,62.05
2022-11-28T09:22:02.532Z,60.80
2022-11-28T09:24:29.077Z,49.88
2022-11-28T09:26:55.717Z,49.55
2022-11-28T09:29:22.425Z,57.47
2022-11-28T09:31:48.977Z,55.22
2022-11-28T09:34:15.751Z,49.85
2022-11-28T09:36:42.337Z,46.55
2022-11-28T09:39:09.180Z,43.42
2022-11-28T09:41:42.052Z,39.60
2022-11-28T09:44:25.114Z,41.75
2022-11-28T09:46:55.845Z,41.80
2022-11-28T09:49:36.786Z,38.30
2022-11-28T09:52:22.100Z,40.50
2022-11-28T09:55:20.623Z,37.75
2022-11-28T09:57:49.638Z,36.40
2022-11-28T10:00:22.667Z,36.20
2022-11-28T10:03:28.207Z,39.80
2022-11-28T10:06:21.839Z,39.55
2022-11-28T10:09:09.872Z,45.90
2022-11-28T10:11:39.506Z,47.45
2022-11-28T10:14:20.989Z,46.58
2022-11-28T10:17:19.793Z,42.22
2022-11-28T10:20:00.469Z,41.42
2022-11-28T10:22:57.815Z,42.47
2022-11-28T10:25:42.693Z,45.08
2022-11-28T10:28:18.152Z,47.90
2022-11-28T10:30:51.329Z,48.97
2022-11-28T10:33:38.114Z,49.13
2022-11-28T10:36:05.225Z,52.08
2022-11-28T10:38:34.755Z,48.15
2022-11-28T10:41:14.575Z,49.85
2022-11-28T10:44:09.798Z,44.30
2022-11-28T10:47:02.516Z,41.17
2022-11-28T10:49:50.779Z,46.70
2022-11-28T10:52:26.363Z,49.90
2022-11-28T10:55:20.717Z,49.45
2022-11-28T10:57:47.182Z,39.47
2022-11-28T11:00:13.636Z,38.80
2022-11-28T11:02:49.844Z,37.72
2022-11-28T11:05:28.538Z,39.35
2022-11-28T11:07:58.633Z,41.83
2022-11-28T11:10:52.230Z,41.20
2022-11-28T11:13:23.564Z,38.80
2022-11-28T11:15:57.797Z,40.08
2022-11-28T11:18:35.020Z,42.70
2022-11-28T11:21:14.817Z,43.47
2022-11-28T11:23:41.850Z,46.35
2022-11-28T11:26:19.733Z,53.15
2022-11-28T11:28:49.031Z,47.80
2022-11-28T11:31:21.393Z,45.83
2022-11-28T11:33:51.642Z,46.00
2022-11-28T11:36:25.743Z,46.60
2022-11-28T11:38:59.854Z,50.40
2022-11-28T11:41:31.217Z,52.80
2022-11-28T11:44:25.189Z,49.72
2022-11-28T11:47:02.813Z,46.85
2022-11-28T11:49:41.706Z,49.13
2022-11-28T11:52:19.096Z,49.08
2022-11-28T11:54:54.347Z,52.58
2022-11-28T11:57:33.177Z,52.22
2022-11-28T12:00:26.849Z,51.60
2022-11-28T12:03:03.263Z,45.28
2022-11-28T12:06:06.158Z,45.25
2022-11-28T12:08:49.108Z,46.00
2022-11-28T12:11:24.488Z,45.75
2022-11-28T12:13:51.986Z,44.13
2022-11-28T12:16:29.817Z,45.38
2022-11-28T12:19:18.201Z,44.10
2022-11-28T12:22:07.053Z,46.38
2022-11-28T12:24:45.664Z,46.95
2022-11-28T12:27:18.384Z,46.97
2022-11-28T12:29:59.461Z,45.15
2022-11-28T12:33:01.321Z,49.28
2022-11-28T12:35:41.765Z,49.33
2022-11-28T12:38:23.529Z,46.85
2022-11-28T12:41:17.850Z,47.35
2022-11-28T12:44:11.859Z,49.92
2022-11-28T12:46:38.343Z,50.45
2022-11-28T12:49:25.962Z,52.88
2022-11-28T12:52:17.456Z,52.90
2022-11-28T12:55:19.293Z,53.35
2022-11-28T12:58:07.072Z,56.08
2022-11-28T13:00:49.951Z,58.20
2022-11-28T13:03:34.199Z,56.67
2022-11-28T13:06:34.545Z,59.33
2022-11-28T13:09:26.443Z,55.17
2022-11-28T13:12:29.905Z,58.20
2022-11-28T13:15:00.791Z,57.67
2022-11-28T13:17:52.060Z,64.05
2022-11-28T13:20:51.022Z,65.13
2022-11-28T13:23:52.172Z,61.95
2022-11-28T13:26:37.335Z,61.58
2022-11-28T13:29:18.284Z,59.20
2022-11-28T13:31:57.340Z,60.38
2022-11-28T13:34:29.245Z,56.58
2022-11-28T13:39:47.174Z,55.22
2022-11-28T13:43:02.215Z,58.30
2022-11-28T13:45:32.030Z,53.88
2022-11-28T13:48:00.346Z,53.53
2022-11-28T13:50:41.289Z,55.08
2022-11-28T13:53:08.147Z,54.88
2022-11-28T13:55:40.706Z,51.47
2022-11-28T13:58:29.636Z,52.22
2022-11-28T14:01:18.872Z,53.30
2022-11-28T14:04:01.292Z,55.60
2022-11-28T14:06:54.651Z,52.72
2022-11-28T14:09:53.806Z,54.45
2022-11-28T14:12:46.729Z,54.65
2022-11-28T14:15:19.285Z,54.05
2022-11-28T14:17:55.134Z,52.03
2022-11-28T14:20:42.939Z,52.30
2022-11-28T14:23:40.541Z,51.47
2022-11-28T14:26:23.384Z,51.70
2022-11-28T14:28:49.996Z,55.95
2022-11-28T14:31:25.204Z,54.92
2022-11-28T14:33:58.834Z,50.75
2022-11-28T14:36:29.876Z,52.42
2022-11-28T14:39:32.006Z,52.17
2022-11-28T14:42:51.964Z,51.00
2022-11-28T14:45:53.831Z,51.47
2022-11-28T14:48:30.666Z,48.33
2022-11-28T14:51:01.662Z,48.42
2022-11-28T14:53:44.627Z,50.88
2022-11-28T14:56:23.880Z,48.22
2022-11-28T14:58:55.013Z,50.10
2022-11-28T15:01:34.201Z,50.58
2022-11-28T15:04:35.342Z,48.33
2022-11-28T15:07:04.229Z,48.88
2022-11-28T15:09:37.978Z,49.22
2022-11-28T15:12:16.341Z,47.72
2022-11-28T15:14:47.243Z,47.97
2022-11-28T15:17:14.949Z,49.75
2022-11-28T15:19:48.185Z,49.00
2022-11-28T15:22:38.997Z,47.92
2022-11-28T15:25:18.298Z,48.20
2022-11-28T15:27:45.206Z,49.50
2022-11-28T15:30:17.751Z,50.13
2022-11-28T15:32:44.621Z,49.80
2022-11-28T15:35:18.764Z,49.70
2022-11-28T15:37:50.683Z,48.20
2022-11-28T15:40:24.010Z,51.35
2022-11-28T15:42:51.218Z,47.75
2022-11-28T15:45:17.773Z,51.13
2022-11-28T15:47:46.685Z,48.58
2022-11-28T15:50:13.161Z,52.50
2022-11-28T15:52:39.714Z,47.72
2022-11-28T15:55:19.941Z,45.00
2022-11-28T15:57:46.483Z,45.00
2022-11-28T16:00:18.804Z,44.63
2022-11-28T16:02:46.571Z,44.50
2022-11-28T16:05:22.217Z,47.13
2022-11-28T16:07:51.147Z,49.13
2022-11-28T16:10:37.842Z,46.58
2022-11-28T16:13:14.584Z,45.92
2022-11-28T16:15:49.914Z,46.03
2022-11-28T16:18:17.266Z,45.13
2022-11-28T16:20:44.021Z,46.63
2022-11-28T16:23:19.282Z,49.17
2022-11-28T16:25:46.985Z,47.85
2022-11-28T16:28:36.480Z,47.83
2022-11-28T16:31:11.018Z,46.72
2022-11-28T16:33:38.956Z,46.78
2022-11-28T16:36:31.043Z,49.58
2022-11-28T16:39:09.681Z,47.05
2022-11-28T16:41:37.949Z,51.53
2022-11-28T16:44:08.168Z,52.95
2022-11-28T16:46:53.389Z,54.25
2022-11-28T16:49:40.247Z,57.60
2022-11-28T16:52:21.757Z,55.17
2022-11-28T16:54:49.599Z,56.90
2022-11-28T16:57:16.731Z,58.67
2022-11-28T16:59:44.861Z,59.08
2022-11-28T17:02:22.949Z,57.45
2022-11-28T17:04:52.192Z,57.13
2022-11-28T17:07:23.938Z,55.95
2022-11-28T17:09:51.185Z,56.53
2022-11-28T17:12:26.065Z,57.92
2022-11-28T17:14:53.397Z,57.10
2022-11-28T17:17:21.407Z,57.25
2022-11-28T17:19:47.859Z,55.55
2022-11-28T17:22:18.028Z,57.13
2022-11-28T17:24:44.968Z,56.67
2022-11-28T17:27:13.033Z,58.17
2022-11-28T17:29:39.900Z,56.67
2022-11-28T17:32:06.744Z,54.38
2022-11-28T17:34:37.012Z,55.72
2022-11-28T17:37:05.119Z,57.55
2022-11-28T17:39:31.609Z,59.47
2022-11-28T17:41:58.969Z,54.97
2022-11-28T17:44:27.415Z,54.80
2022-11-28T17:46:55.429Z,52.85
2022-11-28T17:49:22.542Z,54.90
2022-11-28T17:51:49.993Z,51.17
2022-11-28T17:54:18.520Z,52.97
2022-11-28T17:56:46.156Z,51.10
2022-11-28T17:59:13.464Z,51.97
2022-11-28T18:01:40.561Z,51.17
2022-11-28T18:04:07.773Z,49.80
2022-11-28T18:06:34.471Z,51.67
2022-11-28T18:09:05.957Z,50.85
2022-11-28T18:11:35.889Z,49.33
2022-11-28T18:14:02.397Z,49.47
2022-11-28T18:16:30.214Z,50.60
2022-11-28T18:18:57.101Z,46.08
2022-11-28T18:21:24.986Z,48.20
2022-11-28T18:23:51.613Z,45.33
2022-11-28T18:26:20.948Z,43.72
2022-11-28T18:28:47.728Z,46.70
2022-11-28T18:31:24.007Z,46.28
2022-11-28T18:33:50.828Z,47.47
2022-11-28T18:36:23.213Z,45.83
2022-11-28T18:38:50.031Z,46.63
2022-11-28T18:41:17.764Z,44.50
2022-11-28T18:43:45.052Z,42.92
2022-11-28T18:46:14.701Z,42.90
2022-11-28T18:48:43.740Z,41.03
2022-11-28T18:51:17.555Z,38.83
2022-11-28T18:53:45.129Z,39.50
2022-11-28T18:56:13.012Z,40.22
2022-11-28T18:58:42.501Z,39.67
2022-11-28T19:01:10.183Z,38.00
2022-11-28T19:03:37.815Z,37.70
2022-11-28T19:06:06.209Z,37.33
2022-11-28T19:08:33.337Z,35.85
2022-11-28T19:11:04.417Z,38.47
2022-11-28T19:13:30.938Z,37.88
2022-11-28T19:15:57.429Z,35.80
2022-11-28T19:18:23.959Z,38.38
2022-11-28T19:20:50.550Z,36.88
2022-11-28T19:23:17.047Z,36.67
2022-11-28T19:25:44.354Z,34.40
2022-11-28T19:28:10.849Z,37.50
2022-11-28T19:30:37.325Z,36.80
2022-11-28T19:33:03.845Z,36.92
2022-11-28T19:35:30.405Z,38.17
2022-11-28T19:37:56.929Z,36.83
2022-11-28T19:40:23.546Z,36.88
2022-11-28T19:42:50.150Z,36.63
2022-11-28T19:45:16.828Z,37.45
2022-11-28T19:47:43.464Z,37.17
2022-11-28T19:50:10.415Z,36.33
2022-11-28T19:52:37.040Z,37.28
2022-11-28T19:55:03.706Z,36.85
2022-11-28T19:57:30.297Z,36.97
2022-11-28T19:59:56.786Z,35.72
2022-11-28T20:02:23.607Z,35.25
2022-11-28T20:04:50.249Z,37.15
2022-11-28T20:07:16.835Z,37.35
2022-11-28T20:09:43.736Z,35.80
2022-11-28T20:12:10.431Z,34.22
2022-11-28T20:14:37.000Z,37.55
2022-11-28T20:17:03.618Z,36.13
2022-11-28T20:19:30.178Z,36.33
2022-11-28T20:21:58.617Z,35.08
2022-11-28T20:24:25.204Z,36.20
2022-11-28T20:26:51.802Z,37.45
2022-11-28T20:29:19.097Z,37.25
2022-11-28T20:31:47.464Z,35.70
2022-11-28T20:34:15.045Z,34.30
2022-11-28T20:36:41.645Z,34.85
2022-11-28T20:39:09.527Z,38.05
2022-11-28T20:41:36.064Z,36.22
2022-11-28T20:44:03.255Z,35.53
2022-11-28T20:46:32.513Z,36.72
2022-11-28T20:49:02.190Z,34.63
2022-11-28T20:51:31.239Z,34.92
2022-11-28T20:53:59.226Z,35.63
2022-11-28T20:56:31.999Z,34.60
2022-11-28T20:59:01.800Z,36.33
2022-11-28T21:01:33.182Z,35.33
2022-11-28T21:04:04.257Z,38.05
2022-11-28T21:06:31.419Z,34.00
2022-11-28T21:08:58.069Z,38.80
2022-11-28T21:11:55.278Z,37.90
2022-11-28T21:14:15.185Z,36.17
2022-11-28T21:16:42.054Z,35.15
2022-11-28T21:19:09.522Z,35.30
2022-11-28T21:21:38.982Z,36.38
2022-11-28T21:24:08.636Z,36.92
2022-11-28T21:26:40.915Z,35.85
2022-11-28T21:29:10.838Z,36.55
2022-11-28T21:31:41.256Z,35.50
2022-11-28T21:34:07.882Z,38.35
2022-11-28T21:36:34.963Z,34.33
2022-11-28T21:39:01.669Z,35.75
2022-11-28T21:41:30.452Z,34.78
2022-11-28T21:43:57.776Z,35.75
2022-11-28T21:46:25.102Z,35.08
2022-11-28T21:48:52.038Z,35.15
2022-11-28T21:51:21.005Z,36.22
2022-11-28T21:53:47.617Z,38.85
2022-11-28T21:56:14.169Z,38.20
2022-11-28T21:58:40.793Z,37.33
2022-11-28T22:01:11.300Z,36.08
2022-11-28T22:03:39.443Z,37.38
2022-11-28T22:06:07.983Z,35.90
2022-11-28T22:08:35.331Z,36.60
2022-11-28T22:11:08.473Z,35.92
2022-11-28T22:13:35.889Z,38.42
2022-11-28T22:16:08.419Z,36.78
2022-11-28T22:18:35.087Z,35.45
2022-11-28T22:21:22.331Z,35.97
2022-11-28T22:23:53.033Z,33.67
2022-11-28T22:26:19.709Z,36.58
2022-11-28T22:28:53.179Z,34.47
2022-11-28T22:31:20.702Z,35.97
2022-11-28T22:33:49.186Z,35.60
2022-11-28T22:36:17.853Z,34.45
2022-11-28T22:38:45.953Z,36.85
2022-11-28T22:41:15.889Z,34.97
2022-11-28T22:43:42.449Z,37.83
2022-11-28T22:46:09.994Z,33.60
2022-11-28T22:48:38.017Z,35.17
2022-11-28T22:51:16.772Z,35.80
2022-11-28T22:53:43.736Z,35.70
2022-11-28T22:56:13.784Z,36.90
2022-11-28T22:58:43.445Z,34.67
2022-11-28T23:01:12.449Z,37.03
2022-11-28T23:03:39.141Z,38.35
2022-11-28T23:06:07.174Z,38.88
2022-11-28T23:08:34.656Z,36.88
2022-11-28T23:11:08.792Z,37.28
2022-11-28T23:13:36.401Z,35.17
2022-11-28T23:16:10.272Z,35.22
2022-11-28T23:18:36.801Z,32.93
2022-11-28T23:21:03.394Z,34.80
2022-11-28T23:23:33.949Z,36.47
2022-11-28T23:26:09.394Z,34.30
2022-11-28T23:28:37.210Z,34.20
2022-11-28T23:31:33.738Z,33.90
2022-11-28T23:34:01.077Z,35.63
2022-11-28T23:36:30.409Z,34.67
2022-11-28T23:38:59.589Z,34.08
2022-11-28T23:41:26.735Z,33.65
2022-11-28T23:43:53.398Z,35.38
2022-11-28T23:46:21.139Z,36.15
2022-11-28T23:48:48.596Z,34.70
2022-11-28T23:51:16.618Z,36.47
2022-11-28T23:53:43.886Z,35.42
2022-11-28T23:56:14.103Z,35.63
2022-11-28T23:58:42.080Z,35.25
